createdAt,value
2023-12-30T00:00:33.335Z,99635.06
2023-12-30T00:03:02.951Z,99635.91
2023-12-30T00:05:31.135Z,99621.59
2023-12-30T00:07:59.111Z,99613.25
2023-12-30T00:10:27.157Z,99618.34
2023-12-30T00:12:55.163Z,99626.69
2023-12-30T00:15:23.140Z,99625.78
2023-12-30T00:17:51.193Z,99631.50
2023-12-30T00:20:20.643Z,99622.22
2023-12-30T00:22:48.895Z,99622.84
2023-12-30T00:25:17.666Z,99620.44
2023-12-30T00:27:45.815Z,99623.28
2023-12-30T00:30:14.991Z,99620.78
2023-12-30T00:32:43.080Z,99624.50
2023-12-30T00:35:11.490Z,99626.28
2023-12-30T00:37:40.772Z,99614.81
2023-12-30T00:40:09.733Z,99612.25
2023-12-30T00:42:37.888Z,99613.81
2023-12-30T00:45:07.927Z,99607.00
2023-12-30T00:47:35.844Z,99608.63
2023-12-30T00:50:03.917Z,99612.97
2023-12-30T00:52:31.950Z,99612.25
2023-12-30T00:55:01.366Z,99619.84
2023-12-30T00:57:29.378Z,99606.84
2023-12-30T00:59:57.422Z,99605.06
2023-12-30T01:02:25.541Z,99614.34
2023-12-30T01:04:53.857Z,99612.09
2023-12-30T01:07:21.895Z,99607.69
2023-12-30T01:09:49.820Z,99602.03
2023-12-30T01:12:19.274Z,99600.50
2023-12-30T01:14:47.346Z,99610.81
2023-12-30T01:17:15.324Z,99600.53
2023-12-30T01:19:43.558Z,99579.91
2023-12-30T01:22:12.268Z,99588.63
2023-12-30T01:24:40.257Z,99586.69
2023-12-30T01:27:08.253Z,99604.41
2023-12-30T01:29:37.553Z,99600.28
2023-12-30T01:32:06.044Z,99598.34
2023-12-30T01:34:34.100Z,99605.25
2023-12-30T01:37:02.666Z,99606.94
2023-12-30T01:39:30.649Z,99605.13
2023-12-30T01:41:58.584Z,99589.81
2023-12-30T01:44:26.629Z,99597.84
2023-12-30T01:46:56.398Z,99598.34
2023-12-30T01:49:24.205Z,99595.34
2023-12-30T01:51:54.430Z,99590.38
2023-12-30T01:54:23.437Z,99609.84
2023-12-30T01:56:51.700Z,99604.53
2023-12-30T01:59:20.951Z,99600.75
2023-12-30T02:01:49.348Z,99600.75
2023-12-30T02:04:19.210Z,99597.84
2023-12-30T02:06:47.321Z,99602.16
2023-12-30T02:09:15.572Z,99588.16
2023-12-30T02:11:43.857Z,99590.97
2023-12-30T02:14:24.695Z,99591.28
2023-12-30T02:16:52.811Z,99571.59
2023-12-30T02:19:22.397Z,99574.06
2023-12-30T02:21:51.167Z,99576.63
2023-12-30T02:24:21.036Z,99573.16
2023-12-30T02:26:49.218Z,99575.25
2023-12-30T02:29:17.275Z,99575.84
2023-12-30T02:31:48.412Z,99583.16
2023-12-30T02:34:17.357Z,99577.69
2023-12-30T02:36:46.275Z,99583.75
2023-12-30T02:39:14.576Z,99587.94
2023-12-30T02:41:44.215Z,99586.22
2023-12-30T02:44:12.331Z,99589.25
2023-12-30T02:47:04.096Z,99587.34
2023-12-30T02:49:41.086Z,99589.25
2023-12-30T02:52:15.198Z,99582.81
2023-12-30T02:54:43.165Z,99580.44
2023-12-30T02:57:12.446Z,99576.00
2023-12-30T02:59:40.339Z,99567.81
2023-12-30T03:02:08.996Z,99576.31
2023-12-30T03:04:37.078Z,99574.47
2023-12-30T03:07:05.314Z,99579.38
2023-12-30T03:09:33.242Z,99578.75
2023-12-30T03:12:03.210Z,99576.91
2023-12-30T03:14:32.624Z,99575.72
2023-12-30T03:17:00.558Z,99575.81
2023-12-30T03:19:28.597Z,99579.47
2023-12-30T03:21:56.590Z,99579.47
2023-12-30T03:24:24.535Z,99564.91
2023-12-30T03:26:52.468Z,99565.19
2023-12-30T03:29:21.082Z,99564.13
2023-12-30T03:31:50.432Z,99562.84
2023-12-30T03:34:18.497Z,99563.31
2023-12-30T03:36:46.498Z,99556.75
2023-12-30T03:39:15.210Z,99572.44
2023-12-30T03:41:43.162Z,99565.72
2023-12-30T03:44:12.102Z,99570.75
2023-12-30T03:46:42.065Z,99568.44
2023-12-30T03:49:11.449Z,99575.22
2023-12-30T03:51:39.593Z,99580.94
2023-12-30T03:54:07.541Z,99578.47
2023-12-30T03:56:40.187Z,99581.88
2023-12-30T03:59:08.150Z,99585.13
2023-12-30T04:01:36.687Z,99582.72
2023-12-30T04:04:05.229Z,99589.94
2023-12-30T04:06:34.590Z,99598.44
2023-12-30T04:09:02.572Z,99593.47
2023-12-30T04:11:30.624Z,99595.28
2023-12-30T04:13:58.757Z,99599.22
2023-12-30T04:16:26.792Z,99591.72
2023-12-30T04:18:55.026Z,99594.13
2023-12-30T04:21:25.457Z,99592.28
2023-12-30T04:23:54.736Z,99597.69
2023-12-30T04:26:22.660Z,99616.75
2023-12-30T04:28:50.752Z,99606.53
2023-12-30T04:31:18.775Z,99613.16
2023-12-30T04:33:46.901Z,99606.84
2023-12-30T04:36:14.963Z,99606.13
2023-12-30T04:38:44.938Z,99606.22
2023-12-30T04:41:15.767Z,99613.94
2023-12-30T04:43:43.747Z,99612.88
2023-12-30T04:46:13.446Z,99618.44
2023-12-30T04:48:41.641Z,99600.03
2023-12-30T04:51:10.060Z,99600.88
2023-12-30T04:53:38.088Z,99595.69
2023-12-30T04:56:08.082Z,99597.53
2023-12-30T04:58:37.398Z,99612.56
2023-12-30T05:01:05.879Z,99618.44
2023-12-30T05:03:33.991Z,99617.81
2023-12-30T05:06:01.973Z,99614.50
2023-12-30T05:08:30.216Z,99605.97
2023-12-30T05:10:58.164Z,99600.50
2023-12-30T05:13:26.236Z,99596.31
2023-12-30T05:15:55.651Z,99583.78
2023-12-30T05:18:23.650Z,99588.56
2023-12-30T05:20:51.620Z,99596.78
2023-12-30T05:23:19.515Z,99596.00
2023-12-30T05:25:47.437Z,99597.72
2023-12-30T05:28:15.651Z,99597.38
2023-12-30T05:30:43.636Z,99605.19
2023-12-30T05:33:13.223Z,99599.88
2023-12-30T05:35:41.768Z,99599.56
2023-12-30T05:38:13.477Z,99608.50
2023-12-30T05:40:41.777Z,99611.75
2023-12-30T05:43:09.712Z,99618.56
2023-12-30T05:45:37.712Z,99619.78
2023-12-30T05:48:06.336Z,99626.16
2023-12-30T05:50:35.650Z,99620.38
2023-12-30T05:53:04.102Z,99632.03
2023-12-30T05:55:32.280Z,99638.88
2023-12-30T05:58:00.275Z,99645.41
2023-12-30T06:00:28.171Z,99650.06
2023-12-30T06:02:56.093Z,99657.84
2023-12-30T06:05:24.016Z,99657.28
2023-12-30T06:07:53.362Z,99660.41
2023-12-30T06:10:21.953Z,99668.09
2023-12-30T06:12:49.848Z,99666.97
2023-12-30T06:15:17.735Z,99665.56
2023-12-30T06:17:45.726Z,99661.72
2023-12-30T06:20:13.750Z,99675.97
2023-12-30T06:22:41.675Z,99679.38
2023-12-30T06:25:11.216Z,99681.84
2023-12-30T06:27:39.138Z,99685.41
2023-12-30T06:30:08.987Z,99685.56
2023-12-30T06:32:37.050Z,99684.63
2023-12-30T06:35:05.422Z,99694.56
2023-12-30T06:37:33.400Z,99691.06
2023-12-30T06:40:01.344Z,99682.88
2023-12-30T06:42:30.707Z,99684.16
2023-12-30T06:44:58.792Z,99685.88
2023-12-30T06:47:26.814Z,99687.66
2023-12-30T06:49:54.797Z,99701.19
2023-12-30T06:52:24.655Z,99693.16
2023-12-30T06:55:02.625Z,99686.66
2023-12-30T06:57:39.985Z,99690.84
2023-12-30T07:00:09.214Z,99683.41
2023-12-30T07:02:37.179Z,99697.00
2023-12-30T07:05:05.763Z,99707.84
2023-12-30T07:07:33.909Z,99702.72
2023-12-30T07:10:01.854Z,99714.88
2023-12-30T07:12:29.858Z,99708.56
2023-12-30T07:14:59.671Z,99706.69
2023-12-30T07:17:28.186Z,99718.47
2023-12-30T07:19:56.958Z,99720.44
2023-12-30T07:22:25.873Z,99716.81
2023-12-30T07:24:53.939Z,99723.38
2023-12-30T07:27:21.848Z,99726.09
2023-12-30T07:29:49.773Z,99726.94
2023-12-30T07:32:19.144Z,99744.53
2023-12-30T07:34:47.212Z,99760.06
2023-12-30T07:37:15.247Z,99750.84
2023-12-30T07:39:43.553Z,99746.06
2023-12-30T07:42:11.440Z,99742.22
2023-12-30T07:44:39.697Z,99745.00
2023-12-30T07:47:08.254Z,99737.22
2023-12-30T07:49:38.066Z,99750.81
2023-12-30T07:52:06.731Z,99759.44
2023-12-30T07:54:34.735Z,99771.06
2023-12-30T07:57:02.731Z,99772.44
2023-12-30T07:59:30.599Z,99768.16
2023-12-30T08:01:58.629Z,99767.47
2023-12-30T08:04:26.825Z,99771.44
2023-12-30T08:06:56.143Z,99775.66
2023-12-30T08:09:24.558Z,99772.66
2023-12-30T08:11:59.532Z,99776.34
2023-12-30T08:14:30.959Z,99780.88
2023-12-30T08:16:59.924Z,99783.44
2023-12-30T08:19:28.043Z,99786.88
2023-12-30T08:21:58.315Z,99787.97
2023-12-30T08:24:29.350Z,99783.16
2023-12-30T08:27:00.472Z,99785.00
2023-12-30T08:29:28.371Z,99792.75
2023-12-30T08:31:56.375Z,99791.38
2023-12-30T08:34:29.107Z,99796.56
2023-12-30T08:36:58.588Z,99801.44
2023-12-30T08:39:26.578Z,99799.41
2023-12-30T08:41:54.527Z,99789.75
2023-12-30T08:44:22.433Z,99797.25
2023-12-30T08:46:50.441Z,99798.66
2023-12-30T08:49:18.612Z,99796.78
2023-12-30T08:51:46.669Z,99788.72
2023-12-30T08:54:15.923Z,99789.59
2023-12-30T08:56:43.901Z,99795.56
2023-12-30T08:59:11.829Z,99798.13
2023-12-30T09:01:40.043Z,99795.56
2023-12-30T09:04:08.282Z,99795.72
2023-12-30T09:06:36.350Z,99794.84
2023-12-30T09:09:05.540Z,99786.66
2023-12-30T09:11:38.816Z,99772.94
2023-12-30T09:14:07.473Z,99773.94
2023-12-30T09:16:36.294Z,99782.38
2023-12-30T09:19:05.173Z,99784.94
2023-12-30T09:21:33.274Z,99786.56
2023-12-30T09:24:01.278Z,99786.34
2023-12-30T09:26:29.424Z,99780.69
2023-12-30T09:28:58.755Z,99789.06
2023-12-30T09:31:28.142Z,99786.72
2023-12-30T09:33:55.170Z,99784.53
2023-12-30T09:36:23.120Z,99784.69
2023-12-30T09:38:51.094Z,99788.09
2023-12-30T09:41:22.537Z,99780.91
2023-12-30T09:43:51.895Z,99783.44
2023-12-30T09:46:23.080Z,99781.91
2023-12-30T09:48:52.244Z,99762.38
2023-12-30T09:51:20.310Z,99778.94
2023-12-30T09:53:48.312Z,99767.44
2023-12-30T09:56:17.452Z,99771.78
2023-12-30T09:58:46.290Z,99775.03
2023-12-30T10:01:14.565Z,99777.69
2023-12-30T10:03:45.144Z,99768.53
2023-12-30T10:06:15.410Z,99766.44
2023-12-30T10:08:44.079Z,99761.63
2023-12-30T10:11:12.921Z,99759.53
2023-12-30T10:13:41.081Z,99756.72
2023-12-30T10:16:09.812Z,99755.44
2023-12-30T10:18:38.901Z,99751.41
2023-12-30T10:21:09.413Z,99742.91
2023-12-30T10:23:39.086Z,99760.59
2023-12-30T10:26:06.976Z,99768.78
2023-12-30T10:28:35.139Z,99765.53
2023-12-30T10:31:04.090Z,99766.94
2023-12-30T10:33:33.955Z,99745.50
2023-12-30T10:36:02.049Z,99756.56
2023-12-30T10:38:31.549Z,99761.81
2023-12-30T10:40:59.736Z,99764.53
2023-12-30T10:43:27.597Z,99773.75
2023-12-30T10:45:59.231Z,99768.13
2023-12-30T10:48:32.856Z,99765.78
2023-12-30T10:51:02.195Z,99757.72
2023-12-30T10:53:33.975Z,99751.38
2023-12-30T10:56:02.964Z,99754.00
2023-12-30T10:58:34.481Z,99745.13
2023-12-30T11:01:04.762Z,99743.56
2023-12-30T11:03:34.075Z,99741.09
2023-12-30T11:06:08.583Z,99737.81
2023-12-30T11:08:42.961Z,99722.91
2023-12-30T11:11:13.815Z,99739.19
2023-12-30T11:13:44.016Z,99735.47
2023-12-30T11:16:16.505Z,99745.09
2023-12-30T11:18:50.882Z,99738.84
2023-12-30T11:21:35.164Z,99742.53
2023-12-30T11:24:07.187Z,99738.44
2023-12-30T11:26:36.568Z,99746.81
2023-12-30T11:29:05.458Z,99742.63
2023-12-30T11:31:34.436Z,99744.00
2023-12-30T11:34:02.933Z,99738.84
2023-12-30T11:36:31.238Z,99736.56
2023-12-30T11:39:00.740Z,99747.59
2023-12-30T11:41:31.958Z,99743.41
2023-12-30T11:44:03.385Z,99743.41
2023-12-30T11:46:32.633Z,99732.44
2023-12-30T11:49:01.826Z,99728.19
2023-12-30T11:51:31.389Z,99724.31
2023-12-30T11:54:02.696Z,99724.31
2023-12-30T11:56:32.280Z,99712.72
2023-12-30T11:59:01.219Z,99719.47
2023-12-30T12:01:29.395Z,99714.50
2023-12-30T12:03:57.661Z,99712.81
2023-12-30T12:06:25.967Z,99716.22
2023-12-30T12:08:53.953Z,99717.06
2023-12-30T12:11:21.896Z,99713.09
2023-12-30T12:13:57.878Z,99711.53
2023-12-30T12:16:27.076Z,99694.78
2023-12-30T12:18:55.530Z,99686.41
2023-12-30T12:21:23.609Z,99700.16
2023-12-30T12:23:51.640Z,99691.84
2023-12-30T12:26:19.636Z,99696.28
2023-12-30T12:28:47.560Z,99694.69
2023-12-30T12:31:20.596Z,99695.69
2023-12-30T12:33:48.652Z,99699.94
2023-12-30T12:36:18.877Z,99699.22
2023-12-30T12:38:47.171Z,99696.88
2023-12-30T12:41:15.085Z,99698.69
2023-12-30T12:43:43.376Z,99693.91
2023-12-30T12:46:12.329Z,99692.41
2023-12-30T12:48:41.808Z,99696.72
2023-12-30T12:51:09.743Z,99686.88
2023-12-30T12:53:38.286Z,99690.41
2023-12-30T12:56:06.308Z,99687.25
2023-12-30T12:58:34.315Z,99694.06
2023-12-30T13:01:04.613Z,99687.66
2023-12-30T13:03:32.750Z,99691.94
2023-12-30T13:06:13.880Z,99696.25
2023-12-30T13:08:42.650Z,99699.78
2023-12-30T13:11:10.568Z,99699.13
2023-12-30T13:13:38.570Z,99692.53
2023-12-30T13:16:07.727Z,99693.56
2023-12-30T13:18:35.812Z,99697.16
2023-12-30T13:21:07.452Z,99698.19
2023-12-30T13:23:35.403Z,99690.88
2023-12-30T13:26:05.137Z,99694.41
2023-12-30T13:28:33.340Z,99696.22
2023-12-30T13:31:01.353Z,99699.75
2023-12-30T13:33:29.531Z,99693.16
2023-12-30T13:35:57.407Z,99692.63
2023-12-30T13:38:28.911Z,99701.97
2023-12-30T13:41:01.288Z,99698.84
2023-12-30T13:43:29.442Z,99688.88
2023-12-30T13:46:12.684Z,99700.91
2023-12-30T13:48:54.660Z,99697.72
2023-12-30T13:51:22.600Z,99691.09
2023-12-30T13:53:53.861Z,99706.31
2023-12-30T13:56:26.163Z,99698.16
2023-12-30T13:58:58.038Z,99705.69
2023-12-30T14:01:26.888Z,99707.47
2023-12-30T14:03:57.083Z,99702.41
2023-12-30T14:06:33.346Z,99709.31
2023-12-30T14:09:19.222Z,99716.88
2023-12-30T14:11:50.729Z,99715.28
2023-12-30T14:14:18.812Z,99714.56
2023-12-30T14:16:46.980Z,99709.69
2023-12-30T14:19:17.160Z,99698.13
2023-12-30T14:21:45.273Z,99706.56
2023-12-30T14:24:17.174Z,99711.69
2023-12-30T14:26:45.185Z,99709.25
2023-12-30T14:29:13.119Z,99706.81
2023-12-30T14:31:41.192Z,99704.19
2023-12-30T14:34:10.736Z,99699.94
2023-12-30T14:36:39.206Z,99701.41
2023-12-30T14:39:10.098Z,99698.75
2023-12-30T14:41:41.112Z,99706.06
2023-12-30T14:44:09.279Z,99703.31
2023-12-30T14:46:37.420Z,99699.75
2023-12-30T14:49:05.406Z,99707.09
2023-12-30T14:51:33.700Z,99701.00
2023-12-30T14:54:01.569Z,99704.78
2023-12-30T14:56:29.528Z,99702.03
2023-12-30T14:58:59.165Z,99710.06
2023-12-30T15:01:27.262Z,99706.44
2023-12-30T15:03:59.581Z,99708.63
2023-12-30T15:06:30.028Z,99710.06
2023-12-30T15:08:59.755Z,99699.06
2023-12-30T15:11:28.606Z,99698.06
2023-12-30T15:13:58.551Z,99691.28
2023-12-30T15:16:26.484Z,99699.47
2023-12-30T15:18:54.457Z,99698.56
2023-12-30T15:21:22.779Z,99699.22
2023-12-30T15:23:50.920Z,99700.81
2023-12-30T15:26:18.915Z,99688.84
2023-12-30T15:28:46.839Z,99693.88
2023-12-30T15:31:16.584Z,99689.56
2023-12-30T15:33:44.678Z,99699.38
2023-12-30T15:36:12.913Z,99700.88
2023-12-30T15:38:40.955Z,99708.13
2023-12-30T15:41:08.883Z,99711.34
2023-12-30T15:43:37.344Z,99710.44
2023-12-30T15:46:08.576Z,99717.81
2023-12-30T15:48:39.674Z,99710.16
2023-12-30T15:51:08.285Z,99716.06
2023-12-30T15:53:36.551Z,99718.53
2023-12-30T15:56:04.893Z,99724.38
2023-12-30T15:58:32.956Z,99720.25
2023-12-30T16:01:00.952Z,99715.28
2023-12-30T16:03:28.945Z,99711.94
2023-12-30T16:05:58.479Z,99716.91
2023-12-30T16:08:27.365Z,99720.13
2023-12-30T16:10:56.525Z,99725.94
2023-12-30T16:13:24.486Z,99726.72
2023-12-30T16:15:54.007Z,99727.50
2023-12-30T16:18:22.139Z,99714.00
2023-12-30T16:20:50.083Z,99734.09
2023-12-30T16:23:19.487Z,99735.66
2023-12-30T16:25:48.505Z,99733.09
2023-12-30T16:28:17.324Z,99729.69
2023-12-30T16:30:45.421Z,99733.63
2023-12-30T16:33:13.548Z,99738.47
2023-12-30T16:35:41.700Z,99731.72
2023-12-30T16:38:09.657Z,99745.00
2023-12-30T16:40:39.866Z,99739.06
2023-12-30T16:43:08.235Z,99734.81
2023-12-30T16:45:36.857Z,99737.31
2023-12-30T16:48:05.486Z,99740.50
2023-12-30T16:50:33.528Z,99726.94
2023-12-30T16:53:05.221Z,99739.44
2023-12-30T16:55:33.664Z,99733.63
2023-12-30T16:58:03.225Z,99739.38
2023-12-30T17:00:31.370Z,99741.06
2023-12-30T17:02:59.506Z,99746.91
2023-12-30T17:05:27.720Z,99756.53
2023-12-30T17:07:55.616Z,99760.09
2023-12-30T17:10:23.591Z,99750.00
2023-12-30T17:12:51.581Z,99761.09
2023-12-30T17:15:20.914Z,99755.34
2023-12-30T17:17:48.959Z,99749.44
2023-12-30T17:20:17.040Z,99759.53
2023-12-30T17:22:45.013Z,99768.41
2023-12-30T17:25:14.856Z,99761.84
2023-12-30T17:27:42.891Z,99764.94
2023-12-30T17:30:11.352Z,99769.66
2023-12-30T17:32:40.690Z,99768.44
2023-12-30T17:35:09.778Z,99772.41
2023-12-30T17:37:38.244Z,99772.34
2023-12-30T17:40:06.969Z,99774.75
2023-12-30T17:42:36.073Z,99776.44
2023-12-30T17:45:04.462Z,99774.28
2023-12-30T17:47:34.674Z,99784.69
2023-12-30T17:50:08.192Z,99785.66
2023-12-30T17:52:36.583Z,99788.13
2023-12-30T17:55:05.897Z,99782.53
2023-12-30T17:57:34.032Z,99783.94
2023-12-30T18:00:02.025Z,99783.38
2023-12-30T18:02:33.456Z,99792.81
2023-12-30T18:05:01.751Z,99798.72
2023-12-30T18:07:31.237Z,99800.50
2023-12-30T18:09:59.221Z,99792.94
2023-12-30T18:12:29.084Z,99796.22
2023-12-30T18:14:56.973Z,99802.66
2023-12-30T18:17:24.883Z,99790.75
2023-12-30T18:19:52.894Z,99797.78
2023-12-30T18:22:20.914Z,99795.84
2023-12-30T18:24:50.294Z,99796.06
2023-12-30T18:27:18.321Z,99799.50
2023-12-30T18:29:46.778Z,99786.13
2023-12-30T18:32:14.651Z,99792.72
2023-12-30T18:34:42.705Z,99788.38
2023-12-30T18:37:15.892Z,99796.25
2023-12-30T18:39:44.028Z,99793.00
2023-12-30T18:42:13.321Z,99801.38
2023-12-30T18:44:41.274Z,99796.09
2023-12-30T18:47:09.150Z,99789.16
2023-12-30T18:49:37.171Z,99798.38
2023-12-30T18:52:05.577Z,99807.44
2023-12-30T18:54:33.550Z,99805.75
2023-12-30T18:57:01.453Z,99808.38
2023-12-30T18:59:30.740Z,99805.59
2023-12-30T19:02:01.344Z,99800.63
2023-12-30T19:04:31.991Z,99799.38
2023-12-30T19:07:00.823Z,99806.72
2023-12-30T19:09:28.719Z,99797.16
2023-12-30T19:11:56.960Z,99793.06
2023-12-30T19:14:24.868Z,99794.22
2023-12-30T19:16:54.237Z,99789.97
2023-12-30T19:19:22.214Z,99791.81
2023-12-30T19:21:50.174Z,99795.44
2023-12-30T19:24:18.303Z,99789.00
2023-12-30T19:26:46.604Z,99797.97
2023-12-30T19:29:14.622Z,99806.31
2023-12-30T19:31:43.091Z,99802.28
2023-12-30T19:34:12.420Z,99800.34
2023-12-30T19:36:40.855Z,99802.72
2023-12-30T19:39:09.498Z,99807.44
2023-12-30T19:41:38.366Z,99805.97
2023-12-30T19:44:07.425Z,99804.16
2023-12-30T19:46:35.807Z,99806.78
2023-12-30T19:49:05.659Z,99800.41
2023-12-30T19:51:35.283Z,99803.13
2023-12-30T19:54:03.881Z,99800.03
2023-12-30T19:56:31.940Z,99793.66
2023-12-30T19:58:59.866Z,99802.81
2023-12-30T20:01:27.924Z,99799.63
2023-12-30T20:03:55.982Z,99801.31
2023-12-30T20:06:23.959Z,99799.00
2023-12-30T20:08:53.256Z,99796.44
2023-12-30T20:11:22.388Z,99801.47
2023-12-30T20:13:51.133Z,99795.75
2023-12-30T20:16:19.140Z,99800.47
2023-12-30T20:18:47.220Z,99799.88
2023-12-30T20:21:15.889Z,99796.94
2023-12-30T20:23:43.828Z,99791.91
2023-12-30T20:26:13.093Z,99791.19
2023-12-30T20:28:41.143Z,99792.97
2023-12-30T20:31:09.495Z,99787.78
2023-12-30T20:33:38.083Z,99790.59
2023-12-30T20:36:07.045Z,99793.38
2023-12-30T20:38:35.741Z,99781.47
2023-12-30T20:41:03.834Z,99788.28
2023-12-30T20:43:33.227Z,99772.56
2023-12-30T20:46:01.424Z,99767.44
2023-12-30T20:48:29.602Z,99769.53
2023-12-30T20:50:57.619Z,99764.72
2023-12-30T20:53:25.594Z,99770.44
2023-12-30T20:55:53.508Z,99775.66
2023-12-30T20:58:21.532Z,99778.81
2023-12-30T21:00:50.830Z,99782.84
2023-12-30T21:03:18.789Z,99789.19
2023-12-30T21:05:46.801Z,99789.00
2023-12-30T21:08:14.742Z,99786.06
2023-12-30T21:10:42.939Z,99789.94
2023-12-30T21:13:10.979Z,99786.69
2023-12-30T21:15:39.076Z,99782.75
2023-12-30T21:18:10.846Z,99783.09
2023-12-30T21:20:38.942Z,99782.41
2023-12-30T21:23:07.217Z,99785.78
2023-12-30T21:25:35.239Z,99786.63
2023-12-30T21:28:05.892Z,99796.63
2023-12-30T21:30:34.164Z,99793.69
2023-12-30T21:33:02.448Z,99802.91
2023-12-30T21:35:32.564Z,99804.53
2023-12-30T21:38:00.548Z,99802.75
2023-12-30T21:40:29.442Z,99814.88
2023-12-30T21:42:57.433Z,99816.44
2023-12-30T21:45:25.320Z,99809.78
2023-12-30T21:47:53.382Z,99807.13
2023-12-30T21:50:21.468Z,99805.28
2023-12-30T21:52:52.937Z,99805.88
2023-12-30T21:55:21.280Z,99815.78
2023-12-30T21:57:49.873Z,99811.69
2023-12-30T22:00:18.225Z,99813.31
2023-12-30T22:02:47.496Z,99814.00
2023-12-30T22:05:18.650Z,99819.91
2023-12-30T22:07:46.646Z,99823.50
2023-12-30T22:10:16.724Z,99826.91
2023-12-30T22:12:43.716Z,99838.78
2023-12-30T22:15:11.569Z,99832.88
2023-12-30T22:17:39.784Z,99819.66
2023-12-30T22:20:09.576Z,99821.78
2023-12-30T22:22:38.014Z,99810.22
2023-12-30T22:25:06.419Z,99787.94
2023-12-30T22:27:36.527Z,99802.63
2023-12-30T22:30:04.866Z,99809.50
2023-12-30T22:32:32.994Z,99811.13
2023-12-30T22:35:05.155Z,99812.22
2023-12-30T22:37:33.709Z,99809.56
2023-12-30T22:40:01.583Z,99813.66
2023-12-30T22:42:29.466Z,99812.81
2023-12-30T22:44:58.777Z,99815.94
2023-12-30T22:47:26.777Z,99806.78
2023-12-30T22:49:54.708Z,99804.91
2023-12-30T22:52:22.671Z,99797.41
2023-12-30T22:54:50.568Z,99805.34
2023-12-30T22:57:18.512Z,99810.91
2023-12-30T22:59:46.381Z,99813.00
2023-12-30T23:02:15.660Z,99801.56
2023-12-30T23:04:43.706Z,99801.56
2023-12-30T23:07:11.961Z,99791.81
2023-12-30T23:09:40.064Z,99792.88
2023-12-30T23:12:08.286Z,99785.72
2023-12-30T23:14:36.193Z,99792.88
2023-12-30T23:17:04.350Z,99802.75
2023-12-30T23:19:33.913Z,99785.78
2023-12-30T23:22:01.954Z,99784.00
2023-12-30T23:24:29.925Z,99782.53
2023-12-30T23:26:57.932Z,99780.38
2023-12-30T23:29:27.006Z,99787.88
2023-12-30T23:31:55.639Z,99775.81
2023-12-30T23:34:24.951Z,99777.84
2023-12-30T23:36:57.528Z,99778.03
2023-12-30T23:39:26.175Z,99783.47
2023-12-30T23:41:54.112Z,99775.25
2023-12-30T23:44:22.019Z,99774.75
2023-12-30T23:46:50.002Z,99772.94
2023-12-30T23:49:18.513Z,99774.00
2023-12-30T23:51:46.573Z,99773.25
2023-12-30T23:54:15.905Z,99780.78
2023-12-30T23:56:44.313Z,99780.00
2023-12-30T23:59:14.087Z,99777.69
